17°C Temp
15°C Dewpoint
% Humidity
Temperature
11 KM/H
7 MPH
6 KTS
80°
Due East

Wind Speed
Clear
Conditions
Pressure 1011.92 (hPa) - 29.88 (in)
Visibility 6.2 (mi) - 10.0 (km)

Current Conditions
EPKT
Location 6km (3.2mi)
Metar :EPKT 252130Z 08006KT CAVOK 17/15 Q1012
Sun 25th July 23:30 pm

Airport
  Metar Aviation API Data Provided by https://www.checkwx.com/ CSS/SVG/PHP scripts by weather34.com © 2015-2021